createdAt,value
2018-09-27T00:02:18.357Z,15.48
2018-09-27T00:04:46.612Z,15.50
2018-09-27T00:07:14.830Z,15.51
2018-09-27T00:09:43.076Z,15.46
2018-09-27T00:21:08.906Z,15.42
2018-09-27T00:23:56.885Z,15.49
2018-09-27T01:18:15.648Z,15.51
2018-09-27T02:17:54.645Z,15.55
2018-09-27T02:26:08.106Z,15.52
2018-09-27T02:28:36.345Z,15.51
2018-09-27T02:31:04.584Z,15.60
2018-09-27T02:33:32.945Z,15.54
2018-09-27T02:36:01.318Z,15.51
2018-09-27T02:38:29.607Z,15.59
2018-09-27T02:40:57.841Z,15.52
2018-09-27T02:43:26.070Z,15.51
2018-09-27T02:45:54.318Z,15.47
2018-09-27T02:48:22.575Z,15.50
2018-09-27T02:50:50.858Z,15.53
2018-09-27T02:53:19.091Z,15.46
2018-09-27T02:55:47.347Z,15.45
2018-09-27T02:58:15.593Z,15.47
2018-09-27T03:00:43.848Z,15.47
2018-09-27T03:03:12.093Z,15.44
2018-09-27T03:05:40.354Z,15.45
2018-09-27T03:08:08.596Z,15.41
2018-09-27T03:10:36.861Z,15.37
2018-09-27T03:13:05.133Z,15.42
2018-09-27T03:27:22.723Z,15.46
2018-09-27T03:29:50.980Z,15.43
2018-09-27T03:32:19.237Z,15.35
2018-09-27T03:34:47.486Z,15.47
2018-09-27T03:37:15.976Z,15.46
2018-09-27T03:39:44.249Z,15.46
2018-09-27T03:42:12.482Z,15.50
2018-09-27T03:44:40.737Z,15.43
2018-09-27T03:47:09.049Z,15.45
2018-09-27T03:49:37.304Z,15.41
2018-09-27T03:52:05.586Z,15.43
2018-09-27T03:54:33.826Z,15.45
2018-09-27T03:57:02.098Z,15.47
2018-09-27T03:59:30.361Z,15.51
2018-09-27T04:01:58.633Z,15.46
2018-09-27T04:04:26.878Z,15.51
2018-09-27T04:06:55.110Z,15.51
2018-09-27T04:09:23.383Z,15.55
2018-09-27T04:11:51.629Z,15.60
2018-09-27T05:29:41.422Z,15.80
2018-09-27T05:32:09.689Z,15.84
2018-09-27T05:34:37.947Z,15.77
2018-09-27T05:37:06.225Z,15.77
2018-09-27T05:39:34.540Z,15.77
2018-09-27T05:42:02.776Z,15.81
2018-09-27T05:44:31.074Z,15.87
2018-09-27T05:47:05.885Z,15.93
2018-09-27T05:49:34.183Z,15.94
2018-09-27T05:52:02.433Z,15.93
2018-09-27T05:54:30.713Z,16.03
2018-09-27T05:56:58.981Z,15.90
2018-09-27T05:59:27.270Z,15.95
2018-09-27T06:01:55.547Z,15.96
2018-09-27T06:04:23.805Z,15.97
2018-09-27T06:06:52.061Z,16.04
2018-09-27T06:09:20.321Z,16.00
2018-09-27T06:11:48.586Z,15.94
2018-09-27T06:14:16.817Z,15.95
2018-09-27T06:16:45.089Z,15.93
2018-09-27T06:24:03.248Z,16.09
2018-09-27T06:26:31.497Z,16.27
2018-09-27T06:28:59.766Z,16.31
2018-09-27T06:31:28.000Z,16.26
2018-09-27T06:33:56.265Z,16.26
2018-09-27T06:36:24.490Z,16.19
2018-09-27T06:38:52.721Z,16.23
2018-09-27T06:41:21.050Z,16.41
2018-09-27T06:43:49.257Z,16.39
2018-09-27T06:46:17.496Z,16.39
2018-09-27T06:48:45.756Z,16.53
2018-09-27T06:51:13.998Z,16.54
2018-09-27T06:53:42.376Z,16.64
2018-09-27T06:56:10.670Z,16.64
2018-09-27T06:58:38.879Z,16.75
2018-09-27T07:01:07.149Z,16.74
2018-09-27T07:03:35.397Z,16.81
2018-09-27T07:06:03.638Z,16.73
2018-09-27T07:08:31.922Z,16.77
2018-09-27T07:11:00.161Z,16.84
2018-09-27T07:13:28.433Z,16.83
2018-09-27T07:15:56.682Z,16.90
2018-09-27T07:18:24.925Z,16.85
2018-09-27T07:26:48.564Z,16.93
2018-09-27T07:29:16.765Z,16.87
2018-09-27T07:31:45.045Z,16.96
2018-09-27T07:34:13.317Z,16.93
2018-09-27T07:36:41.595Z,16.87
2018-09-27T07:39:11.200Z,16.78
2018-09-27T07:41:40.246Z,16.76
2018-09-27T07:44:08.730Z,16.81
2018-09-27T07:46:37.076Z,16.80
2018-09-27T07:49:05.328Z,16.85
2018-09-27T07:51:33.582Z,16.79
2018-09-27T07:54:01.869Z,16.89
2018-09-27T07:56:30.175Z,16.79
2018-09-27T07:58:58.390Z,16.93
2018-09-27T08:01:26.617Z,16.98
2018-09-27T08:03:54.861Z,16.91
2018-09-27T08:06:23.169Z,16.95
2018-09-27T08:08:51.414Z,17.03
2018-09-27T08:11:19.712Z,16.82
2018-09-27T08:13:47.919Z,16.90
2018-09-27T08:16:16.165Z,16.87
2018-09-27T08:19:02.752Z,16.96
2018-09-27T08:24:24.498Z,16.94
2018-09-27T08:26:52.848Z,17.12
2018-09-27T08:29:21.078Z,17.08
2018-09-27T08:31:49.345Z,17.13
2018-09-27T08:34:17.605Z,17.35
2018-09-27T08:36:45.848Z,17.35
2018-09-27T08:39:14.093Z,17.50
2018-09-27T08:41:42.350Z,17.50
2018-09-27T08:44:11.626Z,17.52
2018-09-27T08:46:40.417Z,17.78
2018-09-27T08:49:08.697Z,17.75
2018-09-27T08:51:37.025Z,17.59
2018-09-27T08:54:05.225Z,17.96
2018-09-27T08:56:33.505Z,17.89
2018-09-27T08:59:01.782Z,18.10
2018-09-27T09:01:30.053Z,17.93
2018-09-27T09:03:58.341Z,18.07
2018-09-27T09:06:26.627Z,18.11
2018-09-27T09:08:54.873Z,18.11
2018-09-27T09:11:23.139Z,18.41
2018-09-27T09:14:08.357Z,18.51
2018-09-27T09:16:39.796Z,18.86
2018-09-27T09:19:08.026Z,18.93
2018-09-27T10:15:54.741Z,23.06
2018-09-27T10:18:22.986Z,23.37
2018-09-27T10:23:43.513Z,23.06
2018-09-27T12:12:44.170Z,23.23
2018-09-27T12:27:01.643Z,24.25
2018-09-27T12:29:29.869Z,24.50
2018-09-27T12:31:58.114Z,23.93
2018-09-27T12:34:26.613Z,24.22
2018-09-27T12:36:54.849Z,23.86
2018-09-27T12:39:23.087Z,23.93
2018-09-27T12:41:51.481Z,23.29
2018-09-27T12:44:19.649Z,23.36
2018-09-27T12:46:47.953Z,23.96
2018-09-27T12:49:16.127Z,23.59
2018-09-27T12:51:44.482Z,24.44
2018-09-27T12:54:12.660Z,24.03
2018-09-27T12:56:40.909Z,23.75
2018-09-27T12:59:09.222Z,23.54
2018-09-27T13:01:37.573Z,23.75
2018-09-27T13:04:05.852Z,22.86
2018-09-27T13:06:34.108Z,23.30
2018-09-27T13:09:02.503Z,22.88
2018-09-27T13:11:30.656Z,23.39
2018-09-27T13:13:58.967Z,24.09
2018-09-27T13:16:27.229Z,24.47
2018-09-27T13:25:02.716Z,24.78
2018-09-27T13:27:30.906Z,23.77
2018-09-27T13:29:59.180Z,23.02
2018-09-27T13:32:27.419Z,23.18
2018-09-27T13:34:55.646Z,23.33
2018-09-27T13:37:23.891Z,23.10
2018-09-27T13:39:52.195Z,22.70
2018-09-27T13:42:20.425Z,23.22
2018-09-27T13:44:48.655Z,22.31
2018-09-27T13:47:16.910Z,22.43
2018-09-27T13:49:45.145Z,22.26
2018-09-27T13:52:13.395Z,22.02
2018-09-27T13:54:41.624Z,21.77
2018-09-27T13:57:09.929Z,21.67
2018-09-27T13:59:38.153Z,21.66
2018-09-27T14:02:06.658Z,21.77
2018-09-27T14:04:35.274Z,21.61
2018-09-27T14:07:03.593Z,21.62
2018-09-27T14:09:31.858Z,21.66
2018-09-27T14:12:00.129Z,21.94
2018-09-27T14:23:27.308Z,21.30
2018-09-27T14:25:55.581Z,21.33
2018-09-27T14:28:23.833Z,21.16
2018-09-27T14:30:52.147Z,21.18
2018-09-27T14:33:20.332Z,21.11
2018-09-27T14:35:48.612Z,21.07
2018-09-27T14:38:16.833Z,21.20
2018-09-27T14:40:45.152Z,21.24
2018-09-27T14:43:13.384Z,20.98
2018-09-27T14:45:41.623Z,20.97
2018-09-27T14:48:09.841Z,20.87
2018-09-27T14:50:38.101Z,20.82
2018-09-27T14:53:06.367Z,20.69
2018-09-27T14:55:34.652Z,20.70
2018-09-27T14:58:02.920Z,20.60
2018-09-27T15:00:31.200Z,20.44
2018-09-27T15:02:59.448Z,20.46
2018-09-27T15:05:27.675Z,20.50
2018-09-27T15:07:55.913Z,20.46
2018-09-27T15:10:24.222Z,20.47
2018-09-27T15:13:08.382Z,20.38
2018-09-27T15:15:36.616Z,20.39
2018-09-27T15:18:04.889Z,20.19
2018-09-27T15:20:51.822Z,20.23
2018-09-27T15:26:12.912Z,20.22
2018-09-27T15:28:41.144Z,20.23
2018-09-27T15:31:09.425Z,20.25
2018-09-27T15:33:37.677Z,20.28
2018-09-27T15:36:05.942Z,20.14
2018-09-27T15:38:34.190Z,20.16
2018-09-27T15:41:02.452Z,20.16
2018-09-27T15:43:30.726Z,20.03
2018-09-27T15:45:59.001Z,20.11
2018-09-27T15:48:27.316Z,20.10
2018-09-27T15:50:55.553Z,20.09
2018-09-27T15:53:23.813Z,20.03
2018-09-27T15:55:52.078Z,20.07
2018-09-27T15:58:20.362Z,20.11
2018-09-27T16:00:48.805Z,20.09
2018-09-27T16:03:17.053Z,20.10
2018-09-27T16:05:45.345Z,20.08
2018-09-27T16:08:13.601Z,20.12
2018-09-27T16:10:41.961Z,20.01
2018-09-27T16:30:37.525Z,19.81
2018-09-27T16:33:05.779Z,19.88
2018-09-27T16:35:34.062Z,19.87
2018-09-27T16:38:02.322Z,19.85
2018-09-27T16:40:30.622Z,19.77
2018-09-27T16:42:58.938Z,19.78
2018-09-27T16:45:27.185Z,19.79
2018-09-27T16:47:55.442Z,19.73
2018-09-27T16:50:23.665Z,19.82
2018-09-27T16:52:52.009Z,19.77
2018-09-27T16:55:20.266Z,19.83
2018-09-27T16:57:48.543Z,19.70
2018-09-27T17:00:16.802Z,19.74
2018-09-27T17:02:45.102Z,19.72
2018-09-27T17:05:13.381Z,19.68
2018-09-27T17:07:41.630Z,19.60
2018-09-27T17:10:09.885Z,19.62
2018-09-27T17:12:38.172Z,19.58
2018-09-27T17:15:06.454Z,19.55
2018-09-27T17:17:34.729Z,19.58
2018-09-27T17:20:03.013Z,19.53
2018-09-27T17:22:31.260Z,19.54
2018-09-27T17:27:55.794Z,19.46
2018-09-27T17:30:24.047Z,19.47
2018-09-27T17:32:52.308Z,19.45
2018-09-27T17:35:20.561Z,19.41
2018-09-27T17:37:48.981Z,19.50
2018-09-27T17:40:17.288Z,19.42
2018-09-27T17:42:45.516Z,19.42
2018-09-27T17:45:13.865Z,19.44
2018-09-27T17:47:42.145Z,19.42
2018-09-27T17:50:11.614Z,19.41
2018-09-27T17:52:39.894Z,19.45
2018-09-27T17:55:08.209Z,19.31
2018-09-27T17:57:36.481Z,19.38
2018-09-27T18:00:04.798Z,19.25
2018-09-27T18:02:33.053Z,19.37
2018-09-27T18:05:01.321Z,19.23
2018-09-27T18:07:29.635Z,19.37
2018-09-27T18:09:57.866Z,19.26
2018-09-27T18:12:26.121Z,19.33
2018-09-27T18:14:54.398Z,19.33
2018-09-27T18:17:22.681Z,19.36
2018-09-27T18:20:04.453Z,19.27
2018-09-27T18:22:37.694Z,19.32
2018-09-27T19:13:37.602Z,19.15
2018-09-27T19:16:05.917Z,19.15
2018-09-27T19:18:34.201Z,19.21
2018-09-27T19:21:02.433Z,19.23
2018-09-27T19:23:30.653Z,19.08
2018-09-27T19:25:58.986Z,19.10
2018-09-27T19:28:27.263Z,19.10
2018-09-27T19:30:55.501Z,19.19
2018-09-27T19:33:23.757Z,19.16
2018-09-27T19:35:51.996Z,19.15
2018-09-27T19:38:20.213Z,19.08
2018-09-27T19:40:48.541Z,19.06
2018-09-27T19:43:16.836Z,18.98
2018-09-27T19:45:45.081Z,19.04
2018-09-27T19:48:13.385Z,19.03
2018-09-27T19:50:41.624Z,19.01
2018-09-27T19:53:09.872Z,18.89
2018-09-27T19:55:38.857Z,18.89
2018-09-27T19:58:07.161Z,19.08
2018-09-27T20:00:35.457Z,18.71
2018-09-27T20:03:03.717Z,18.81
2018-09-27T20:05:32.108Z,18.61
2018-09-27T20:08:00.357Z,18.73
2018-09-27T20:10:28.663Z,18.64
2018-09-27T20:12:56.869Z,18.64
2018-09-27T20:15:25.200Z,18.63
2018-09-27T20:17:53.469Z,18.54
2018-09-27T20:20:21.790Z,18.45
2018-09-27T20:23:02.826Z,18.41
2018-09-27T21:19:57.021Z,18.56
2018-09-27T21:22:25.324Z,18.53
2018-09-27T22:13:47.218Z,17.72
2018-09-27T22:16:15.568Z,17.60
2018-09-27T22:18:43.900Z,17.57
2018-09-27T23:12:48.176Z,16.68
2018-09-27T23:15:16.437Z,16.52
2018-09-27T23:17:44.833Z,16.05
2018-09-27T23:23:06.141Z,15.81
2018-09-27T23:31:20.517Z,15.57
2018-09-27T23:33:48.790Z,15.50
2018-09-27T23:36:17.047Z,15.60
2018-09-27T23:38:45.308Z,15.58
2018-09-27T23:41:13.561Z,15.51
2018-09-27T23:43:41.805Z,15.58
2018-09-27T23:46:10.710Z,15.53
2018-09-27T23:48:39.096Z,15.61
2018-09-27T23:51:07.341Z,15.57
2018-09-27T23:53:35.724Z,15.55
2018-09-27T23:56:05.465Z,15.53
2018-09-27T23:58:33.733Z,15.33
